createdAt,value
2023-05-13T00:01:56.141Z,10.50
2023-05-13T00:03:58.662Z,10.50
2023-05-13T00:06:01.215Z,10.50
2023-05-13T00:08:05.607Z,10.50
2023-05-13T00:10:09.166Z,10.40
2023-05-13T00:12:11.637Z,10.40
2023-05-13T00:14:14.349Z,10.40
2023-05-13T00:16:16.921Z,10.40
2023-05-13T00:18:19.602Z,10.40
2023-05-13T00:20:22.409Z,10.30
2023-05-13T00:22:25.400Z,10.30
2023-05-13T00:24:27.897Z,10.30
2023-05-13T00:26:30.368Z,10.20
2023-05-13T00:28:32.906Z,10.20
2023-05-13T00:30:35.431Z,10.10
2023-05-13T00:32:37.984Z,10.10
2023-05-13T00:34:40.629Z,10.10
2023-05-13T00:36:43.640Z,10.10
2023-05-13T00:38:46.233Z,10.00
2023-05-13T00:40:49.811Z,10.00
2023-05-13T00:42:52.311Z,10.00
2023-05-13T00:44:55.724Z,10.00
2023-05-13T00:46:58.197Z,10.00
2023-05-13T00:49:00.934Z,9.90
2023-05-13T00:51:04.192Z,9.90
2023-05-13T00:53:06.804Z,9.90
2023-05-13T00:55:10.394Z,9.80
2023-05-13T00:57:13.076Z,9.90
2023-05-13T00:59:15.702Z,9.90
2023-05-13T01:01:20.104Z,9.90
2023-05-13T01:03:24.532Z,9.80
2023-05-13T01:05:29.611Z,9.80
2023-05-13T01:07:34.277Z,9.80
2023-05-13T01:11:55.340Z,9.80
2023-05-13T01:14:00.600Z,9.80
2023-05-13T01:18:20.372Z,9.80
2023-05-13T01:20:24.389Z,9.70
2023-05-13T01:22:27.521Z,9.70
2023-05-13T01:24:30.858Z,9.70
2023-05-13T01:26:33.557Z,9.70
2023-05-13T01:28:36.541Z,9.60
2023-05-13T01:30:39.503Z,9.60
2023-05-13T01:32:43.216Z,9.60
2023-05-13T01:34:46.950Z,9.60
2023-05-13T01:36:50.478Z,9.60
2023-05-13T01:38:54.740Z,9.60
2023-05-13T01:40:59.057Z,9.60
2023-05-13T01:43:02.245Z,9.60
2023-05-13T01:45:06.028Z,9.50
2023-05-13T01:47:09.180Z,9.50
2023-05-13T01:49:11.944Z,9.50
2023-05-13T01:51:15.240Z,9.50
2023-05-13T01:53:18.045Z,9.50
2023-05-13T01:55:20.749Z,9.40
2023-05-13T01:57:23.775Z,9.50
2023-05-13T01:59:26.390Z,9.50
2023-05-13T02:01:29.277Z,9.40
2023-05-13T02:03:31.940Z,9.40
2023-05-13T02:05:35.124Z,9.40
2023-05-13T02:07:38.710Z,9.50
2023-05-13T02:09:41.885Z,9.50
2023-05-13T02:11:45.312Z,9.50
2023-05-13T02:13:47.925Z,9.50
2023-05-13T02:15:50.419Z,9.50
2023-05-13T02:17:53.011Z,9.50
2023-05-13T02:19:55.728Z,9.50
2023-05-13T02:21:58.522Z,9.40
2023-05-13T02:26:18.586Z,9.30
2023-05-13T02:28:21.146Z,9.10
2023-05-13T02:30:25.993Z,9.10
2023-05-13T02:32:28.656Z,9.10
2023-05-13T02:34:31.191Z,9.00
2023-05-13T02:36:34.410Z,9.00
2023-05-13T02:38:38.796Z,8.90
2023-05-13T02:40:42.398Z,8.90
2023-05-13T02:42:45.570Z,8.90
2023-05-13T02:44:48.766Z,8.80
2023-05-13T02:46:51.616Z,8.80
2023-05-13T02:48:54.252Z,8.80
2023-05-13T02:50:56.839Z,8.70
2023-05-13T02:53:00.196Z,8.60
2023-05-13T02:55:03.556Z,8.60
2023-05-13T02:57:06.413Z,8.50
2023-05-13T02:59:09.679Z,8.50
2023-05-13T03:01:12.978Z,8.40
2023-05-13T03:03:15.746Z,8.30
2023-05-13T03:05:18.351Z,8.30
2023-05-13T03:07:20.818Z,8.40
2023-05-13T03:09:23.448Z,8.40
2023-05-13T03:11:26.661Z,8.40
2023-05-13T03:13:29.362Z,8.40
2023-05-13T03:15:32.253Z,8.50
2023-05-13T03:19:53.265Z,8.50
2023-05-13T03:21:55.933Z,8.50
2023-05-13T03:23:59.544Z,8.60
2023-05-13T03:26:02.356Z,8.10
2023-05-13T03:28:06.528Z,8.60
2023-05-13T03:30:11.961Z,8.50
2023-05-13T03:32:16.331Z,8.50
2023-05-13T03:34:19.115Z,8.60
2023-05-13T03:36:21.816Z,8.60
2023-05-13T03:38:25.686Z,8.60
2023-05-13T03:40:28.966Z,8.40
2023-05-13T03:42:32.164Z,8.40
2023-05-13T03:44:35.451Z,8.50
2023-05-13T03:46:38.263Z,8.50
2023-05-13T03:48:41.180Z,8.50
2023-05-13T03:50:43.786Z,8.50
2023-05-13T03:52:47.288Z,8.60
2023-05-13T03:54:50.804Z,8.50
2023-05-13T03:56:53.505Z,8.50
2023-05-13T03:58:56.128Z,8.50
2023-05-13T04:00:59.839Z,8.50
2023-05-13T04:03:02.758Z,8.50
2023-05-13T04:05:05.895Z,8.50
2023-05-13T04:07:08.563Z,8.40
2023-05-13T04:09:11.076Z,8.40
2023-05-13T04:11:13.692Z,8.40
2023-05-13T04:13:16.346Z,8.40
2023-05-13T04:15:19.237Z,8.30
2023-05-13T04:17:22.388Z,8.30
2023-05-13T04:19:27.050Z,8.30
2023-05-13T04:21:30.969Z,8.20
2023-05-13T04:23:33.569Z,8.20
2023-05-13T04:25:36.648Z,8.20
2023-05-13T04:27:39.324Z,8.30
2023-05-13T04:29:43.777Z,8.30
2023-05-13T04:31:47.015Z,8.30
2023-05-13T04:33:50.312Z,8.30
2023-05-13T04:35:53.402Z,8.30
2023-05-13T04:37:56.033Z,8.30
2023-05-13T04:39:58.751Z,8.30
2023-05-13T04:42:01.379Z,8.20
2023-05-13T04:44:05.812Z,8.20
2023-05-13T04:46:08.930Z,8.00
2023-05-13T04:48:11.631Z,8.00
2023-05-13T04:50:14.428Z,8.10
2023-05-13T04:52:17.489Z,8.20
2023-05-13T04:54:20.101Z,8.20
2023-05-13T04:56:23.035Z,8.40
2023-05-13T04:58:26.347Z,8.30
2023-05-13T05:00:29.241Z,8.40
2023-05-13T05:02:31.875Z,8.40
2023-05-13T05:04:34.777Z,8.40
2023-05-13T05:06:39.320Z,8.40
2023-05-13T05:08:42.900Z,8.50
2023-05-13T05:10:45.584Z,8.50
2023-05-13T05:12:49.032Z,8.50
2023-05-13T05:14:51.500Z,8.50
2023-05-13T05:16:54.125Z,8.70
2023-05-13T05:18:56.856Z,8.60
2023-05-13T05:21:01.750Z,8.70
2023-05-13T05:23:04.381Z,8.80
2023-05-13T05:25:09.436Z,8.90
2023-05-13T05:27:12.072Z,8.90
2023-05-13T05:29:14.636Z,9.00
2023-05-13T05:31:19.105Z,9.20
2023-05-13T05:33:22.261Z,9.40
2023-05-13T05:35:25.570Z,9.50
2023-05-13T05:39:44.565Z,9.80
2023-05-13T05:41:47.298Z,9.90
2023-05-13T05:43:49.928Z,10.10
2023-05-13T05:45:54.235Z,10.30
2023-05-13T05:47:57.885Z,10.40
2023-05-13T05:50:00.680Z,10.40
2023-05-13T05:52:03.362Z,10.60
2023-05-13T05:54:06.042Z,10.60
2023-05-13T05:56:08.601Z,10.70
2023-05-13T05:58:13.384Z,10.80
2023-05-13T06:00:18.301Z,10.90
2023-05-13T06:02:20.840Z,10.90
2023-05-13T06:04:24.274Z,11.00
2023-05-13T06:06:27.523Z,11.00
2023-05-13T06:08:30.557Z,11.00
2023-05-13T06:10:33.428Z,11.00
2023-05-13T06:12:36.374Z,11.10
2023-05-13T06:14:38.953Z,11.10
2023-05-13T06:16:41.661Z,11.20
2023-05-13T06:18:44.663Z,11.20
2023-05-13T06:20:47.277Z,11.20
2023-05-13T06:22:49.762Z,11.10
2023-05-13T06:24:52.454Z,11.30
2023-05-13T06:26:54.907Z,11.40
2023-05-13T06:28:57.625Z,11.40
2023-05-13T06:31:02.295Z,11.50
2023-05-13T06:33:05.647Z,11.50
2023-05-13T06:35:08.536Z,11.60
2023-05-13T06:37:11.856Z,11.60
2023-05-13T06:39:14.455Z,11.60
2023-05-13T06:41:17.792Z,11.70
2023-05-13T06:43:20.400Z,11.80
2023-05-13T06:45:25.529Z,11.80
2023-05-13T06:47:28.252Z,11.80
2023-05-13T06:49:31.928Z,11.90
2023-05-13T06:51:35.114Z,12.00
2023-05-13T06:53:37.629Z,12.10
2023-05-13T06:55:42.099Z,12.10
2023-05-13T06:57:46.095Z,12.30
2023-05-13T06:59:48.625Z,12.30
2023-05-13T07:01:51.218Z,12.40
2023-05-13T07:03:53.816Z,12.60
2023-05-13T07:08:14.026Z,12.80
2023-05-13T07:10:16.613Z,12.90
2023-05-13T07:12:19.279Z,13.00
2023-05-13T07:14:21.829Z,13.10
2023-05-13T07:18:42.270Z,13.30
2023-05-13T07:20:45.097Z,13.40
2023-05-13T07:22:47.884Z,13.50
2023-05-13T07:24:50.401Z,13.60
2023-05-13T07:26:53.020Z,13.80
2023-05-13T07:28:56.360Z,13.90
2023-05-13T07:30:59.045Z,13.90
2023-05-13T07:33:01.731Z,14.20
2023-05-13T07:35:04.520Z,14.30
2023-05-13T07:37:07.045Z,14.30
2023-05-13T07:39:09.719Z,14.40
2023-05-13T07:41:12.223Z,14.50
2023-05-13T07:43:16.565Z,14.70
2023-05-13T07:45:19.219Z,14.70
2023-05-13T07:47:21.981Z,15.00
2023-05-13T07:49:25.305Z,15.10
2023-05-13T07:51:36.941Z,15.20
2023-05-13T07:53:39.670Z,15.40
2023-05-13T07:55:42.593Z,15.50
2023-05-13T07:57:45.294Z,15.80
2023-05-13T07:59:48.241Z,16.00
2023-05-13T08:01:50.829Z,16.20
2023-05-13T08:03:53.493Z,16.50
2023-05-13T08:05:56.233Z,16.70
2023-05-13T08:07:59.162Z,16.90
2023-05-13T08:10:01.643Z,17.00
2023-05-13T08:12:04.514Z,17.20
2023-05-13T08:14:07.211Z,17.30
2023-05-13T08:16:09.702Z,17.50
2023-05-13T08:18:12.323Z,17.70
2023-05-13T08:20:15.005Z,17.80
2023-05-13T08:22:17.471Z,18.10
2023-05-13T08:24:19.960Z,18.30
2023-05-13T08:26:23.564Z,18.50
2023-05-13T08:28:26.611Z,18.70
2023-05-13T08:30:29.268Z,18.80
2023-05-13T08:32:31.805Z,18.90
2023-05-13T08:34:34.321Z,18.70
2023-05-13T08:36:36.931Z,18.90
2023-05-13T08:38:39.617Z,19.10
2023-05-13T08:40:42.465Z,19.20
2023-05-13T08:42:47.140Z,19.40
2023-05-13T08:44:51.574Z,19.60
2023-05-13T08:46:56.121Z,19.80
2023-05-13T08:48:58.977Z,19.90
2023-05-13T08:51:01.935Z,19.70
2023-05-13T08:53:06.193Z,19.80
2023-05-13T08:55:09.325Z,19.60
2023-05-13T08:57:12.042Z,20.00
2023-05-13T08:59:14.539Z,20.10
2023-05-13T09:01:17.162Z,20.30
2023-05-13T09:03:21.494Z,20.60
2023-05-13T09:05:24.576Z,20.70
2023-05-13T09:07:29.303Z,20.40
2023-05-13T09:09:31.795Z,20.50
2023-05-13T09:11:34.530Z,20.50
2023-05-13T09:13:37.119Z,20.60
2023-05-13T09:15:42.284Z,21.00
2023-05-13T09:17:45.496Z,21.00
2023-05-13T09:19:48.260Z,21.30
2023-05-13T09:21:52.305Z,21.50
2023-05-13T09:24:10.956Z,21.40
2023-05-13T09:26:27.195Z,21.50
2023-05-13T09:28:30.561Z,21.60
2023-05-13T09:30:33.957Z,21.70
2023-05-13T09:32:36.471Z,21.90
2023-05-13T09:34:39.063Z,21.80
2023-05-13T09:36:42.435Z,21.70
2023-05-13T09:38:44.973Z,21.80
2023-05-13T09:40:51.703Z,21.80
2023-05-13T09:42:56.080Z,21.80
2023-05-13T09:45:00.780Z,21.90
2023-05-13T09:47:22.272Z,22.10
2023-05-13T09:49:26.258Z,22.10
2023-05-13T09:51:30.158Z,22.10
2023-05-13T09:53:32.683Z,22.30
2023-05-13T09:55:35.228Z,22.40
2023-05-13T09:57:38.536Z,22.60
2023-05-13T09:59:41.368Z,22.50
2023-05-13T10:01:45.413Z,22.50
2023-05-13T10:03:48.295Z,22.50
2023-05-13T10:05:51.194Z,22.70
2023-05-13T10:07:53.904Z,22.90
2023-05-13T10:09:57.647Z,22.90
2023-05-13T10:12:02.002Z,22.60
2023-05-13T10:14:06.282Z,22.40
2023-05-13T10:18:23.961Z,22.40
2023-05-13T10:20:26.740Z,22.50
2023-05-13T10:22:29.899Z,22.70
2023-05-13T10:24:33.503Z,22.70
2023-05-13T10:26:36.328Z,22.60
2023-05-13T10:28:39.144Z,22.80
2023-05-13T10:30:42.140Z,22.70
2023-05-13T10:32:45.399Z,22.70
2023-05-13T10:34:48.276Z,22.60
2023-05-13T10:36:55.200Z,22.80
2023-05-13T10:39:05.153Z,22.80
2023-05-13T10:41:10.388Z,22.80
2023-05-13T10:43:16.633Z,22.80
2023-05-13T10:45:19.188Z,22.80
2023-05-13T10:47:21.741Z,22.90
2023-05-13T10:49:25.929Z,23.00
2023-05-13T10:51:28.558Z,23.10
2023-05-13T10:53:32.505Z,23.20
2023-05-13T10:55:36.848Z,23.40
2023-05-13T10:57:39.340Z,22.80
2023-05-13T10:59:59.180Z,22.50
2023-05-13T11:02:03.042Z,22.80
2023-05-13T11:04:06.045Z,23.10
2023-05-13T11:06:16.020Z,23.10
2023-05-13T11:08:37.628Z,23.20
2023-05-13T11:10:41.306Z,23.20
2023-05-13T11:12:45.730Z,23.30
2023-05-13T11:14:49.181Z,23.10
2023-05-13T11:16:53.910Z,22.90
2023-05-13T11:18:56.610Z,23.10
2023-05-13T11:21:05.171Z,23.10
2023-05-13T11:23:08.062Z,23.30
2023-05-13T11:25:12.689Z,22.90
2023-05-13T11:27:16.202Z,23.00
2023-05-13T11:29:32.326Z,23.00
2023-05-13T11:31:45.448Z,23.20
2023-05-13T11:34:06.314Z,23.40
2023-05-13T11:36:09.112Z,23.40
2023-05-13T11:38:13.420Z,23.50
2023-05-13T11:40:21.869Z,23.30
2023-05-13T11:42:24.869Z,23.50
2023-05-13T11:44:27.869Z,23.10
2023-05-13T11:46:30.614Z,23.10
2023-05-13T11:48:35.212Z,22.90
2023-05-13T11:50:37.643Z,23.00
2023-05-13T11:52:40.219Z,23.20
2023-05-13T11:54:43.686Z,23.50
2023-05-13T11:56:46.147Z,23.70
2023-05-13T11:58:48.920Z,23.70
2023-05-13T12:00:53.223Z,23.70
2023-05-13T12:02:56.651Z,23.70
2023-05-13T12:05:01.301Z,23.50
2023-05-13T12:07:04.043Z,23.20
2023-05-13T12:09:07.204Z,22.60
2023-05-13T12:11:11.841Z,22.20
2023-05-13T12:13:14.545Z,22.00
2023-05-13T12:15:17.763Z,22.00
2023-05-13T12:17:20.652Z,22.40
2023-05-13T12:19:23.205Z,22.40
2023-05-13T12:22:05.451Z,22.00
2023-05-13T12:24:18.376Z,21.70
2023-05-13T12:26:21.074Z,21.60
2023-05-13T12:28:24.009Z,21.70
2023-05-13T12:30:28.453Z,22.10
2023-05-13T12:32:31.395Z,22.40
2023-05-13T12:34:34.521Z,22.60
2023-05-13T12:36:38.049Z,22.90
2023-05-13T13:37:10.560Z,19.10
2023-05-13T13:39:13.183Z,18.80
2023-05-13T13:41:15.748Z,18.70
2023-05-13T13:43:18.936Z,18.70
2023-05-13T13:45:23.534Z,18.60
2023-05-13T13:47:26.033Z,18.60
2023-05-13T13:49:28.900Z,18.60
2023-05-13T13:51:31.777Z,18.70
2023-05-13T13:53:49.017Z,18.80
2023-05-13T13:55:51.728Z,18.80
2023-05-13T13:57:54.220Z,18.80
2023-05-13T13:59:56.999Z,18.90
2023-05-13T14:01:59.645Z,19.00
2023-05-13T14:04:11.430Z,19.20
2023-05-13T14:06:15.143Z,19.50
2023-05-13T14:08:17.734Z,19.90
2023-05-13T14:10:20.550Z,20.20
2023-05-13T14:12:23.463Z,20.50
2023-05-13T14:14:26.269Z,20.80
2023-05-13T14:16:34.254Z,21.30
2023-05-13T14:18:37.037Z,21.60
2023-05-13T14:20:39.736Z,21.70
2023-05-13T14:22:42.618Z,21.70
2023-05-13T14:24:45.724Z,21.90
2023-05-13T14:26:48.459Z,22.10
2023-05-13T14:28:51.106Z,22.30
2023-05-13T14:33:11.511Z,22.40
2023-05-13T14:35:14.221Z,22.40
2023-05-13T14:37:16.736Z,22.40
2023-05-13T14:39:19.397Z,22.20
2023-05-13T14:41:22.557Z,22.30
2023-05-13T14:43:25.081Z,21.90
2023-05-13T14:45:27.603Z,21.80
2023-05-13T14:47:30.163Z,21.80
2023-05-13T14:49:32.692Z,21.80
2023-05-13T14:51:35.366Z,21.30
2023-05-13T14:53:37.859Z,20.90
2023-05-13T14:55:40.520Z,20.50
2023-05-13T14:57:43.388Z,20.30
2023-05-13T14:59:45.958Z,20.20
2023-05-13T15:01:48.681Z,20.00
2023-05-13T15:03:51.255Z,20.00
2023-05-13T15:05:54.270Z,20.10
2023-05-13T15:07:58.444Z,20.10
2023-05-13T15:10:09.512Z,20.20
2023-05-13T15:12:13.090Z,20.20
2023-05-13T15:14:17.508Z,20.20
2023-05-13T15:16:20.450Z,20.40
2023-05-13T15:18:24.724Z,20.70
2023-05-13T15:22:42.969Z,21.30
2023-05-13T15:24:45.454Z,21.20
2023-05-13T15:26:49.476Z,21.30
2023-05-13T15:28:52.064Z,21.00
2023-05-13T15:30:54.838Z,21.10
2023-05-13T15:32:57.358Z,21.00
2023-05-13T15:34:59.943Z,20.90
2023-05-13T15:37:02.573Z,20.90
2023-05-13T15:39:05.153Z,21.00
2023-05-13T15:41:07.720Z,21.00
2023-05-13T15:43:10.188Z,21.20
2023-05-13T15:45:12.656Z,21.60
2023-05-13T15:47:15.291Z,21.90
2023-05-13T15:49:18.080Z,22.20
2023-05-13T15:51:20.662Z,22.30
2023-05-13T15:53:23.228Z,22.10
2023-05-13T15:55:25.833Z,22.30
2023-05-13T15:57:28.345Z,22.50
2023-05-13T15:59:30.859Z,22.70
2023-05-13T16:01:33.392Z,22.90
2023-05-13T16:03:37.893Z,23.20
2023-05-13T16:05:40.239Z,23.30
2023-05-13T16:07:42.790Z,23.50
2023-05-13T16:09:45.295Z,23.50
2023-05-13T16:11:47.752Z,23.60
2023-05-13T16:13:50.530Z,23.70
2023-05-13T16:15:53.468Z,23.70
2023-05-13T16:17:56.066Z,23.90
2023-05-13T16:19:59.211Z,23.90
2023-05-13T16:22:14.654Z,23.80
2023-05-13T16:24:17.260Z,23.10
2023-05-13T16:26:20.881Z,21.80
2023-05-13T16:28:23.520Z,20.90
2023-05-13T16:30:26.018Z,20.90
2023-05-13T16:32:28.829Z,20.70
2023-05-13T16:34:31.629Z,20.60
2023-05-13T16:36:34.112Z,20.40
2023-05-13T16:38:38.220Z,20.20
2023-05-13T16:40:40.721Z,20.20
2023-05-13T16:42:43.469Z,20.20
2023-05-13T16:44:45.941Z,20.20
2023-05-13T16:46:48.442Z,20.00
2023-05-13T16:48:50.985Z,20.10
2023-05-13T16:50:53.497Z,20.10
2023-05-13T16:52:56.443Z,20.10
2023-05-13T16:54:59.209Z,20.10
2023-05-13T16:57:01.924Z,20.10
2023-05-13T16:59:04.404Z,20.10
2023-05-13T17:01:07.127Z,19.90
2023-05-13T17:03:10.322Z,20.00
2023-05-13T17:05:13.259Z,20.00
2023-05-13T17:07:15.715Z,20.00
2023-05-13T17:09:18.781Z,20.10
2023-05-13T17:11:21.987Z,20.20
2023-05-13T17:13:24.603Z,20.20
2023-05-13T17:15:27.207Z,20.20
2023-05-13T17:17:29.929Z,20.20
2023-05-13T17:19:32.505Z,20.30
2023-05-13T17:21:34.991Z,20.10
2023-05-13T17:23:37.497Z,20.20
2023-05-13T17:25:40.002Z,20.20
2023-05-13T17:27:42.527Z,20.20
2023-05-13T17:29:45.002Z,20.20
2023-05-13T17:31:49.012Z,20.30
2023-05-13T17:33:51.504Z,20.20
2023-05-13T17:35:54.799Z,20.20
2023-05-13T17:37:57.275Z,20.10
2023-05-13T17:40:01.640Z,20.20
2023-05-13T17:42:04.228Z,20.30
2023-05-13T17:44:06.906Z,20.40
2023-05-13T17:46:09.429Z,20.60
2023-05-13T17:48:11.967Z,20.60
2023-05-13T17:50:14.525Z,20.70
2023-05-13T17:52:17.095Z,20.70
2023-05-13T17:54:19.595Z,20.70
2023-05-13T17:56:22.055Z,20.70
2023-05-13T17:58:24.556Z,20.70
2023-05-13T18:00:27.543Z,20.70
2023-05-13T18:02:30.085Z,20.60
2023-05-13T18:04:32.601Z,20.50
2023-05-13T18:08:51.207Z,20.20
2023-05-13T18:10:53.842Z,20.10
2023-05-13T18:12:56.335Z,20.00
2023-05-13T18:14:58.860Z,20.00
2023-05-13T18:17:01.342Z,19.90
2023-05-13T18:19:03.871Z,19.90
2023-05-13T18:21:06.401Z,19.80
2023-05-13T18:23:08.914Z,19.80
2023-05-13T18:25:11.382Z,19.70
2023-05-13T18:27:14.590Z,19.60
2023-05-13T18:29:17.103Z,19.60
2023-05-13T18:31:19.666Z,19.40
2023-05-13T18:33:22.238Z,19.30
2023-05-13T18:35:24.880Z,19.10
2023-05-13T18:37:27.357Z,18.90
2023-05-13T18:39:29.868Z,18.70
2023-05-13T18:41:32.496Z,18.50
2023-05-13T18:43:34.972Z,18.30
2023-05-13T18:45:37.676Z,18.20
2023-05-13T18:47:40.436Z,18.00
2023-05-13T18:49:43.117Z,17.90
2023-05-13T18:51:46.728Z,17.80
2023-05-13T18:53:49.451Z,17.70
2023-05-13T18:55:52.046Z,17.60
2023-05-13T18:57:54.533Z,17.40
2023-05-13T18:59:57.873Z,17.30
2023-05-13T19:02:00.614Z,17.20
2023-05-13T19:04:03.426Z,17.10
2023-05-13T19:06:06.056Z,17.00
2023-05-13T19:08:08.628Z,16.90
2023-05-13T19:10:11.293Z,16.90
2023-05-13T19:12:13.874Z,16.80
2023-05-13T19:14:16.457Z,16.70
2023-05-13T19:16:19.023Z,16.60
2023-05-13T19:18:21.913Z,16.50
2023-05-13T19:20:25.446Z,16.40
2023-05-13T19:22:27.989Z,16.30
2023-05-13T19:24:30.457Z,16.20
2023-05-13T19:26:32.938Z,16.10
2023-05-13T19:28:36.562Z,16.00
2023-05-13T19:30:40.493Z,15.80
2023-05-13T19:32:43.504Z,15.60
2023-05-13T19:34:46.066Z,15.50
2023-05-13T19:36:48.568Z,15.40
2023-05-13T19:38:51.073Z,15.30
2023-05-13T19:40:53.584Z,15.10
2023-05-13T19:42:56.155Z,15.00
2023-05-13T19:44:58.644Z,14.90
2023-05-13T19:47:01.361Z,14.90
2023-05-13T19:49:03.835Z,14.80
2023-05-13T19:51:06.411Z,14.90
2023-05-13T19:53:09.000Z,14.80
2023-05-13T19:55:11.598Z,14.80
2023-05-13T19:57:14.086Z,14.80
2023-05-13T19:59:16.609Z,14.80
2023-05-13T20:01:19.147Z,14.80
2023-05-13T20:03:21.752Z,14.90
2023-05-13T20:05:37.661Z,14.90
2023-05-13T20:07:40.509Z,14.80
2023-05-13T20:09:43.014Z,14.60
2023-05-13T20:11:45.650Z,14.60
2023-05-13T20:13:48.136Z,14.50
2023-05-13T20:15:51.333Z,14.50
2023-05-13T20:17:53.958Z,14.40
2023-05-13T20:19:56.458Z,14.30
2023-05-13T20:21:58.931Z,14.30
2023-05-13T20:24:01.461Z,14.20
2023-05-13T20:26:03.972Z,14.10
2023-05-13T20:28:06.467Z,14.10
2023-05-13T20:30:10.721Z,14.10
2023-05-13T20:32:13.622Z,14.10
2023-05-13T20:36:32.000Z,14.10
2023-05-13T20:38:34.507Z,14.10
2023-05-13T20:40:37.143Z,14.00
2023-05-13T20:42:39.749Z,14.00
2023-05-13T20:44:43.634Z,13.90
2023-05-13T20:46:46.257Z,13.80
2023-05-13T20:48:48.750Z,13.70
2023-05-13T20:50:57.764Z,13.60
2023-05-13T20:53:00.282Z,13.60
2023-05-13T20:55:02.820Z,13.60
2023-05-13T20:57:05.747Z,13.60
2023-05-13T20:59:08.459Z,13.60
2023-05-13T21:01:10.998Z,13.50
2023-05-13T21:03:13.654Z,13.40
2023-05-13T21:05:16.473Z,13.30
2023-05-13T21:07:18.948Z,13.20
2023-05-13T21:09:21.453Z,13.20
2023-05-13T21:11:24.105Z,13.20
2023-05-13T21:15:43.966Z,13.00
2023-05-13T21:17:47.352Z,13.00
2023-05-13T21:19:50.056Z,13.00
2023-05-13T21:21:52.530Z,13.00
2023-05-13T21:23:55.233Z,12.90
2023-05-13T21:26:01.704Z,12.90
2023-05-13T21:28:04.975Z,12.80
2023-05-13T21:30:09.550Z,12.80
2023-05-13T21:32:12.342Z,12.70
2023-05-13T21:34:15.143Z,12.70
2023-05-13T21:36:18.060Z,12.70
2023-05-13T21:40:59.604Z,12.60
2023-05-13T21:43:02.408Z,12.60
2023-05-13T21:45:05.876Z,12.50
2023-05-13T21:47:08.438Z,12.50
2023-05-13T21:49:11.314Z,12.50
2023-05-13T21:51:13.896Z,12.40
2023-05-13T21:53:16.521Z,12.30
2023-05-13T21:55:19.158Z,12.30
2023-05-13T21:57:21.703Z,12.30
2023-05-13T21:59:28.894Z,12.20
2023-05-13T22:01:31.360Z,12.20
2023-05-13T22:03:33.929Z,12.20
2023-05-13T22:05:38.961Z,12.20
2023-05-13T22:07:41.474Z,12.20
2023-05-13T22:09:43.997Z,12.00
2023-05-13T22:11:46.518Z,11.90
2023-05-13T22:16:05.433Z,11.50
2023-05-13T22:18:08.271Z,11.70
2023-05-13T22:20:12.056Z,11.70
2023-05-13T22:22:14.583Z,11.80
2023-05-13T22:24:17.050Z,11.70
2023-05-13T22:26:19.583Z,11.70
2023-05-13T22:28:22.163Z,11.70
2023-05-13T22:30:24.889Z,11.60
2023-05-13T22:32:27.837Z,11.60
2023-05-13T22:34:30.434Z,11.90
2023-05-13T22:36:32.912Z,11.50
2023-05-13T22:38:36.425Z,11.50
2023-05-13T22:40:39.036Z,11.40
2023-05-13T22:42:41.487Z,11.40
2023-05-13T22:44:44.543Z,11.40
2023-05-13T22:46:47.195Z,11.30
2023-05-13T22:48:50.305Z,11.20
2023-05-13T22:50:55.750Z,11.10
2023-05-13T22:52:58.775Z,11.20
2023-05-13T22:55:01.592Z,11.20
2023-05-13T22:57:04.909Z,11.20
2023-05-13T22:59:07.775Z,11.10
2023-05-13T23:01:10.452Z,11.10
2023-05-13T23:03:12.951Z,11.20
2023-05-13T23:05:15.969Z,11.10
2023-05-13T23:07:18.795Z,11.20
2023-05-13T23:09:21.702Z,11.30
2023-05-13T23:11:24.638Z,11.30
2023-05-13T23:13:28.399Z,11.30
2023-05-13T23:15:32.072Z,11.30
2023-05-13T23:17:37.031Z,11.30
2023-05-13T23:19:39.611Z,11.20
2023-05-13T23:21:42.096Z,11.10
2023-05-13T23:23:44.621Z,10.90
2023-05-13T23:25:47.212Z,10.80
2023-05-13T23:27:50.532Z,10.70
2023-05-13T23:29:53.036Z,10.70
2023-05-13T23:31:55.651Z,10.70
2023-05-13T23:33:58.413Z,10.80
2023-05-13T23:36:00.933Z,10.80
2023-05-13T23:38:03.392Z,10.80
2023-05-13T23:40:07.317Z,10.70
2023-05-13T23:42:09.884Z,10.60
2023-05-13T23:44:12.400Z,10.70
2023-05-13T23:46:15.078Z,10.70
2023-05-13T23:48:17.612Z,10.60
2023-05-13T23:50:20.156Z,10.60
2023-05-13T23:52:22.629Z,10.60
2023-05-13T23:54:25.156Z,10.60
2023-05-13T23:56:27.653Z,10.70
2023-05-13T23:58:30.158Z,10.60
